Hlavní strana
METAR-TAF:

METAR-TAF

Letiště :

Stockholm-Arlanda, Švédsko

zeměpisná šířka: 59-39N, zeměpisná délka: 017-57E, výška: 38 m

Aktuální stav počasí

Zpráva byla vytvořena před 31 minutami, v 01:20 UTC
Severoseverovýchodní vítr 14 kt
Teplota -2°C
Vlhkost vzduchu 69%
Tlak 988 hPa
Viditelnost 10 km a více
Žádná oblačnost pod 1500 m, nevyskytují se cumulonimby.

METAR: ESSA 260120Z 02014KT CAVOK M02/M07 Q0988 R01L/620165 R08/610167 R01R/SNOCLO NOSIG

Čas: 02:51 (01:51 UTC)

Předpověď počasí

Zpráva byla vytvořena před 2 hodinami a 21 minutami, v 23:30 UTC
Předpověď platná od 26 v 00 UTC do 26 v 24 UTC
Severovýchodní vítr 14 kt
Viditelnost 10 km a více
Polojasno ve výšce 2500 ft
Změna
od 26 v 06 UTC do 26 v 08 UTC
Severovýchodní vítr 15 kt s nárazy do 25 kt

TAF: ESSA 252330Z 2600/2624 04014KT 9999 SCT025 BECMG 2606/2608 04015G25KT

Stav a předpovědi počasí z více než 4 000 letišť (zprávy METAR a TAF).

Červené a žluté tečky na mapě představují dostupné meteorologické stanice.

Když kurzor umístíte na tečku, zobrazí se název stanice.

Pak kliknutím zobrazíte stav a předpověď počasí.

Chcete-li změnit mapu, kliknutím na zelené tlačítko se znaménkem +mapu přiblížíte, kliknutím na zelené tlačítko se znaménkem – mapu oddálíte a kliknutím na zelené šipky přejdete na sousední mapy.


METAR-TAF: